createdAt,value
2022-11-05T00:00:54.975Z,13.22
2022-11-05T00:03:41.202Z,13.15
2022-11-05T00:06:29.181Z,12.90
2022-11-05T00:09:34.943Z,12.98
2022-11-05T00:12:38.796Z,12.91
2022-11-05T00:15:25.213Z,12.94
2022-11-05T00:17:52.494Z,13.00
2022-11-05T00:20:19.621Z,13.32
2022-11-05T00:23:05.089Z,13.51
2022-11-05T00:25:32.571Z,13.34
2022-11-05T00:28:03.485Z,13.00
2022-11-05T00:30:31.001Z,13.12
2022-11-05T00:33:03.197Z,13.12
2022-11-05T00:35:30.521Z,13.21
2022-11-05T00:37:57.689Z,12.80
2022-11-05T00:40:24.815Z,12.81
2022-11-05T00:43:10.915Z,13.00
2022-11-05T00:45:38.268Z,13.02
2022-11-05T00:48:24.552Z,12.98
2022-11-05T00:50:52.049Z,13.19
2022-11-05T00:53:19.322Z,13.17
2022-11-05T00:55:47.347Z,13.32
2022-11-05T00:58:19.215Z,13.37
2022-11-05T01:01:00.896Z,13.42
2022-11-05T01:03:36.200Z,13.45
2022-11-05T01:06:17.614Z,13.27
2022-11-05T01:08:46.792Z,13.33
2022-11-05T01:11:35.273Z,13.22
2022-11-05T01:14:10.154Z,13.43
2022-11-05T01:16:39.240Z,13.40
2022-11-05T01:19:10.538Z,13.44
2022-11-05T01:21:38.478Z,13.48
2022-11-05T01:24:06.298Z,13.45
2022-11-05T01:26:33.470Z,13.44
2022-11-05T01:29:01.116Z,13.58
2022-11-05T01:31:29.131Z,13.67
2022-11-05T01:33:56.281Z,13.61
2022-11-05T01:36:23.399Z,13.51
2022-11-05T01:38:50.522Z,13.50
2022-11-05T01:41:18.090Z,13.43
2022-11-05T01:44:02.015Z,13.46
2022-11-05T01:46:41.263Z,13.47
2022-11-05T01:49:38.392Z,13.50
2022-11-05T01:52:08.287Z,13.47
2022-11-05T01:54:39.521Z,13.52
2022-11-05T01:57:12.039Z,13.70
2022-11-05T01:59:48.807Z,13.70
2022-11-05T02:02:18.217Z,13.67
2022-11-05T02:05:06.438Z,13.68
2022-11-05T02:07:34.787Z,13.68
2022-11-05T02:10:07.263Z,13.69
2022-11-05T02:12:39.088Z,13.83
2022-11-05T02:15:10.405Z,13.74
2022-11-05T02:18:09.068Z,13.44
2022-11-05T02:20:54.902Z,13.59
2022-11-05T02:24:09.130Z,13.33
2022-11-05T02:27:02.205Z,13.46
2022-11-05T02:30:06.668Z,13.53
2022-11-05T02:33:23.372Z,13.53
2022-11-05T02:36:27.623Z,13.21
2022-11-05T02:39:34.795Z,13.43
2022-11-05T02:42:54.184Z,13.58
2022-11-05T02:46:03.729Z,13.67
2022-11-05T02:49:01.547Z,13.77
2022-11-05T02:51:49.453Z,13.28
2022-11-05T02:54:35.713Z,13.27
2022-11-05T02:57:08.742Z,13.23
2022-11-05T02:59:36.519Z,13.51
2022-11-05T03:02:16.852Z,13.59
2022-11-05T03:04:44.566Z,13.34
2022-11-05T03:07:44.086Z,13.67
2022-11-05T03:10:51.812Z,13.42
2022-11-05T03:13:53.233Z,13.29
2022-11-05T03:16:51.151Z,12.99
2022-11-05T03:19:48.870Z,13.28
2022-11-05T03:22:42.241Z,12.90
2022-11-05T03:25:32.335Z,13.29
2022-11-05T03:28:30.949Z,13.19
2022-11-05T03:31:01.062Z,12.75
2022-11-05T03:33:53.373Z,12.73
2022-11-05T03:36:33.635Z,12.93
2022-11-05T03:39:13.752Z,12.66
2022-11-05T03:41:45.163Z,12.85
2022-11-05T03:44:16.854Z,13.01
2022-11-05T03:46:57.794Z,12.97
2022-11-05T03:50:21.723Z,13.15
2022-11-05T03:53:00.440Z,13.45
2022-11-05T03:55:44.763Z,13.27
2022-11-05T03:58:14.549Z,13.15
2022-11-05T04:00:42.311Z,12.91
2022-11-05T04:03:12.182Z,12.66
2022-11-05T04:05:40.784Z,12.95
2022-11-05T04:08:28.705Z,13.06
2022-11-05T04:11:16.920Z,13.13
2022-11-05T04:13:46.441Z,13.31
2022-11-05T04:16:33.332Z,13.37
2022-11-05T04:19:01.366Z,13.36
2022-11-05T04:21:47.667Z,13.26
2022-11-05T04:24:15.259Z,13.34
2022-11-05T04:26:47.500Z,13.17
2022-11-05T04:29:33.733Z,13.20
2022-11-05T04:32:31.980Z,13.06
2022-11-05T04:35:56.588Z,12.91
2022-11-05T04:38:20.204Z,13.05
2022-11-05T04:40:48.839Z,12.68
2022-11-05T04:43:20.022Z,12.50
2022-11-05T04:45:47.708Z,12.54
2022-11-05T04:48:14.982Z,12.79
2022-11-05T04:50:42.361Z,12.45
2022-11-05T04:54:09.232Z,12.54
2022-11-05T04:56:31.641Z,12.74
2022-11-05T04:59:02.589Z,12.84
2022-11-05T05:01:47.873Z,12.94
2022-11-05T05:04:22.501Z,12.98
2022-11-05T05:06:49.731Z,12.94
2022-11-05T05:09:17.100Z,13.01
2022-11-05T05:11:52.016Z,13.01
2022-11-05T05:14:23.852Z,13.07
2022-11-05T05:17:02.203Z,13.08
2022-11-05T05:19:29.816Z,13.11
2022-11-05T05:21:56.987Z,13.00
2022-11-05T05:24:25.003Z,13.01
2022-11-05T05:26:52.254Z,12.81
2022-11-05T05:29:19.564Z,13.00
2022-11-05T05:31:46.784Z,12.96
2022-11-05T05:34:15.284Z,12.76
2022-11-05T05:36:46.053Z,12.80
2022-11-05T05:39:14.249Z,12.90
2022-11-05T05:41:46.316Z,12.86
2022-11-05T05:44:17.583Z,12.99
2022-11-05T05:46:47.306Z,12.89
2022-11-05T05:49:14.886Z,12.83
2022-11-05T05:51:44.563Z,13.16
2022-11-05T05:54:14.854Z,12.84
2022-11-05T05:56:46.137Z,12.79
2022-11-05T05:59:13.589Z,12.75
2022-11-05T06:01:41.351Z,12.79
2022-11-05T06:04:13.545Z,12.85
2022-11-05T06:07:11.305Z,12.84
2022-11-05T06:09:41.073Z,12.84
2022-11-05T06:12:08.612Z,12.88
2022-11-05T06:14:36.095Z,12.81
2022-11-05T06:17:04.009Z,12.81
2022-11-05T06:19:31.651Z,12.87
2022-11-05T06:21:59.371Z,12.89
2022-11-05T06:24:29.167Z,12.89
2022-11-05T06:26:56.412Z,12.90
2022-11-05T06:29:24.255Z,12.89
2022-11-05T06:31:52.018Z,12.79
2022-11-05T06:34:19.432Z,12.76
2022-11-05T06:36:49.210Z,12.90
2022-11-05T06:39:17.167Z,13.00
2022-11-05T06:42:11.845Z,12.88
2022-11-05T06:44:32.272Z,13.00
2022-11-05T06:47:00.329Z,12.93
2022-11-05T06:49:27.514Z,12.94
2022-11-05T06:51:54.796Z,12.98
2022-11-05T06:54:22.631Z,13.05
2022-11-05T06:56:50.096Z,13.14
2022-11-05T06:59:17.844Z,13.23
2022-11-05T07:01:45.228Z,13.33
2022-11-05T07:04:13.064Z,13.16
2022-11-05T07:06:40.455Z,13.21
2022-11-05T07:09:07.776Z,13.22
2022-11-05T07:11:34.943Z,13.17
2022-11-05T07:14:02.543Z,13.33
2022-11-05T07:16:34.595Z,13.26
2022-11-05T07:19:03.594Z,13.25
2022-11-05T07:21:31.165Z,13.53
2022-11-05T07:23:59.065Z,13.79
2022-11-05T07:26:31.843Z,14.14
2022-11-05T07:29:02.200Z,14.45
2022-11-05T07:31:30.060Z,14.74
2022-11-05T07:34:09.421Z,14.89
2022-11-05T07:36:39.528Z,15.01
2022-11-05T07:42:29.251Z,14.81
2022-11-05T07:44:56.623Z,14.62
2022-11-05T07:47:27.896Z,14.68
2022-11-05T07:49:55.144Z,14.80
2022-11-05T07:52:22.322Z,14.78
2022-11-05T07:54:49.983Z,15.13
2022-11-05T07:57:17.501Z,15.57
2022-11-05T07:59:44.630Z,15.87
2022-11-05T08:02:11.962Z,15.56
2022-11-05T08:04:40.340Z,15.85
2022-11-05T08:07:07.560Z,15.88
2022-11-05T08:09:34.937Z,15.71
2022-11-05T08:12:03.379Z,15.82
2022-11-05T08:14:31.034Z,15.74
2022-11-05T08:16:59.129Z,15.01
2022-11-05T08:19:26.869Z,13.95
2022-11-05T08:21:54.521Z,14.21
2022-11-05T08:24:22.012Z,14.00
2022-11-05T08:26:49.262Z,13.72
2022-11-05T08:29:17.029Z,13.19
2022-11-05T08:31:44.669Z,13.53
2022-11-05T08:34:11.975Z,13.47
2022-11-05T08:36:41.960Z,13.60
2022-11-05T08:39:14.283Z,13.73
2022-11-05T08:41:45.579Z,13.52
2022-11-05T08:44:13.210Z,13.57
2022-11-05T08:46:41.841Z,13.51
2022-11-05T08:49:09.408Z,13.29
2022-11-05T08:51:36.759Z,12.95
2022-11-05T08:54:05.051Z,12.95
2022-11-05T08:56:32.646Z,12.98
2022-11-05T08:59:00.939Z,12.86
2022-11-05T09:01:28.432Z,12.72
2022-11-05T09:03:55.833Z,12.42
2022-11-05T09:06:23.274Z,12.73
2022-11-05T09:08:50.949Z,12.83
2022-11-05T09:11:18.493Z,12.86
2022-11-05T09:13:46.155Z,12.98
2022-11-05T09:16:24.207Z,13.18
2022-11-05T09:18:52.438Z,13.31
2022-11-05T09:21:20.248Z,13.35
2022-11-05T09:23:48.646Z,13.09
2022-11-05T09:26:15.882Z,13.26
2022-11-05T09:28:43.557Z,13.04
2022-11-05T09:31:12.029Z,13.36
2022-11-05T09:33:41.628Z,13.57
2022-11-05T09:36:09.617Z,13.57
2022-11-05T09:38:37.182Z,13.44
2022-11-05T09:41:37.475Z,13.56
2022-11-05T09:44:20.758Z,13.74
2022-11-05T09:46:54.896Z,13.73
2022-11-05T09:49:50.308Z,14.00
2022-11-05T09:52:29.985Z,13.84
2022-11-05T09:54:58.398Z,13.90
2022-11-05T09:57:37.249Z,13.73
2022-11-05T10:00:09.617Z,13.85
2022-11-05T10:02:57.575Z,13.97
2022-11-05T10:05:27.304Z,14.12
2022-11-05T10:08:16.957Z,14.24
2022-11-05T10:10:54.405Z,14.27
2022-11-05T10:13:41.193Z,13.85
2022-11-05T10:16:37.978Z,14.11
2022-11-05T10:19:27.193Z,13.98
2022-11-05T10:22:16.612Z,14.10
2022-11-05T10:24:50.166Z,14.36
2022-11-05T10:27:27.229Z,14.62
2022-11-05T10:29:55.672Z,14.80
2022-11-05T10:32:35.064Z,14.81
2022-11-05T10:35:08.220Z,14.75
2022-11-05T10:37:40.851Z,14.76
2022-11-05T10:40:34.425Z,14.75
2022-11-05T10:43:14.266Z,14.31
2022-11-05T10:46:08.903Z,14.51
2022-11-05T10:48:56.900Z,14.82
2022-11-05T10:51:24.581Z,15.22
2022-11-05T10:54:02.267Z,14.77
2022-11-05T10:56:39.521Z,14.69
2022-11-05T10:59:29.809Z,14.65
2022-11-05T11:02:25.907Z,14.75
2022-11-05T11:04:57.941Z,14.73
2022-11-05T11:07:27.187Z,14.93
2022-11-05T11:09:54.628Z,15.07
2022-11-05T11:12:41.010Z,14.88
2022-11-05T11:15:24.024Z,15.28
2022-11-05T11:17:51.430Z,15.55
2022-11-05T11:20:33.250Z,15.29
2022-11-05T11:23:16.985Z,14.94
2022-11-05T11:26:01.789Z,15.17
2022-11-05T11:28:56.445Z,15.72
2022-11-05T11:31:32.576Z,15.62
2022-11-05T11:34:09.301Z,15.92
2022-11-05T11:36:50.785Z,16.08
2022-11-05T11:39:28.924Z,16.17
2022-11-05T11:42:14.214Z,16.58
2022-11-05T11:44:47.038Z,17.05
2022-11-05T11:47:19.869Z,17.55
2022-11-05T11:49:54.893Z,17.44
2022-11-05T11:52:34.616Z,17.51
2022-11-05T11:55:22.570Z,17.51
2022-11-05T11:58:06.105Z,17.26
2022-11-05T12:00:48.749Z,17.10
2022-11-05T12:03:54.242Z,16.85
2022-11-05T12:06:30.354Z,16.74
2022-11-05T12:09:57.063Z,17.29
2022-11-05T12:13:02.517Z,17.38
2022-11-05T12:16:18.228Z,17.71
2022-11-05T12:18:53.897Z,17.79
2022-11-05T12:21:52.073Z,17.75
2022-11-05T12:25:02.374Z,17.98
2022-11-05T12:28:17.806Z,18.40
2022-11-05T12:31:11.104Z,18.51
2022-11-05T12:34:30.656Z,18.68
2022-11-05T12:37:52.065Z,18.85
2022-11-05T12:40:44.403Z,18.53
2022-11-05T12:43:42.496Z,17.96
2022-11-05T12:46:41.256Z,18.06
2022-11-05T12:50:01.082Z,18.00
2022-11-05T12:53:00.640Z,18.01
2022-11-05T12:55:45.474Z,18.12
2022-11-05T12:58:30.709Z,18.15
2022-11-05T13:01:23.471Z,17.31
2022-11-05T13:04:14.217Z,17.47
2022-11-05T13:06:50.091Z,17.31
2022-11-05T13:09:36.736Z,17.26
2022-11-05T13:12:17.311Z,17.58
2022-11-05T13:14:55.135Z,17.74
2022-11-05T13:17:38.861Z,17.75
2022-11-05T13:20:22.185Z,17.86
2022-11-05T13:23:01.159Z,17.97
2022-11-05T13:25:35.964Z,17.96
2022-11-05T13:28:34.494Z,17.71
2022-11-05T13:31:11.237Z,17.74
2022-11-05T13:33:47.479Z,17.59
2022-11-05T13:36:44.753Z,17.52
2022-11-05T13:39:29.269Z,17.65
2022-11-05T13:42:24.019Z,17.76
2022-11-05T13:45:32.000Z,17.44
2022-11-05T13:48:28.077Z,17.29
2022-11-05T13:51:39.669Z,17.10
2022-11-05T13:54:43.887Z,16.95
2022-11-05T13:57:54.733Z,16.70
2022-11-05T14:00:27.233Z,16.81
2022-11-05T14:03:07.439Z,16.86
2022-11-05T14:05:41.065Z,16.31
2022-11-05T14:08:20.611Z,16.71
2022-11-05T14:11:07.634Z,16.45
2022-11-05T14:13:42.784Z,16.67
2022-11-05T14:16:23.320Z,16.50
2022-11-05T14:19:18.754Z,16.47
2022-11-05T14:21:59.745Z,16.24
2022-11-05T14:24:43.011Z,15.93
2022-11-05T14:27:12.941Z,15.87
2022-11-05T14:29:47.884Z,15.87
2022-11-05T14:32:18.612Z,15.77
2022-11-05T14:35:01.800Z,15.65
2022-11-05T14:37:40.840Z,15.61
2022-11-05T14:40:39.127Z,15.51
2022-11-05T14:43:22.281Z,15.34
2022-11-05T14:46:08.351Z,15.35
2022-11-05T14:48:50.622Z,15.26
2022-11-05T14:51:28.555Z,15.16
2022-11-05T14:54:21.714Z,15.02
2022-11-05T14:56:57.998Z,14.66
2022-11-05T14:59:25.095Z,14.76
2022-11-05T15:02:18.290Z,14.57
2022-11-05T15:04:47.351Z,14.80
2022-11-05T15:07:24.463Z,14.74
2022-11-05T15:10:18.436Z,14.78
2022-11-05T15:12:54.800Z,14.85
2022-11-05T15:15:28.529Z,14.84
2022-11-05T15:18:29.416Z,14.83
2022-11-05T15:21:02.612Z,14.84
2022-11-05T15:23:43.109Z,14.77
2022-11-05T15:26:39.548Z,14.67
2022-11-05T15:29:21.626Z,14.71
2022-11-05T15:31:51.222Z,14.70
2022-11-05T15:34:35.760Z,14.65
2022-11-05T15:37:22.767Z,14.51
2022-11-05T15:39:54.970Z,14.53
2022-11-05T15:42:27.396Z,14.57
2022-11-05T15:44:58.910Z,14.66
2022-11-05T15:47:36.898Z,14.56
2022-11-05T15:50:15.579Z,14.58
2022-11-05T15:52:56.709Z,14.50
2022-11-05T15:55:32.944Z,14.49
2022-11-05T15:58:06.837Z,14.57
2022-11-05T16:00:37.056Z,14.40
2022-11-05T16:03:24.542Z,14.43
2022-11-05T16:05:53.446Z,14.46
2022-11-05T16:08:28.092Z,14.48
2022-11-05T16:10:59.879Z,14.45
2022-11-05T16:13:40.134Z,14.35
2022-11-05T16:16:13.791Z,14.68
2022-11-05T16:18:45.485Z,14.34
2022-11-05T16:21:18.786Z,14.23
2022-11-05T16:24:00.461Z,13.83
2022-11-05T16:29:41.354Z,13.84
2022-11-05T16:32:31.828Z,14.09
2022-11-05T16:35:04.826Z,13.95
2022-11-05T16:37:41.125Z,13.95
2022-11-05T16:40:25.885Z,14.02
2022-11-05T16:42:55.117Z,13.90
2022-11-05T16:45:25.177Z,13.83
2022-11-05T16:47:52.587Z,13.81
2022-11-05T16:50:32.663Z,13.83
2022-11-05T16:52:59.989Z,13.70
2022-11-05T16:55:27.400Z,13.75
2022-11-05T16:57:56.084Z,13.67
2022-11-05T17:00:25.728Z,13.88
2022-11-05T17:03:04.402Z,14.23
2022-11-05T17:05:43.052Z,14.44
2022-11-05T17:08:12.573Z,14.05
2022-11-05T17:10:40.853Z,13.35
2022-11-05T17:13:20.207Z,13.28
2022-11-05T17:15:53.415Z,13.40
2022-11-05T17:18:49.415Z,12.65
2022-11-05T17:21:28.425Z,12.79
2022-11-05T17:23:57.256Z,12.82
2022-11-05T17:26:30.987Z,12.86
2022-11-05T17:29:03.754Z,12.34
2022-11-05T17:31:59.550Z,12.19
2022-11-05T17:35:07.211Z,11.97
2022-11-05T17:38:24.110Z,11.81
2022-11-05T17:44:22.772Z,11.45
2022-11-05T17:47:58.333Z,11.61
2022-11-05T17:50:31.358Z,11.55
2022-11-05T17:53:56.417Z,11.50
2022-11-05T17:56:51.288Z,11.35
2022-11-05T18:07:22.683Z,11.30
2022-11-05T18:09:59.371Z,10.88
2022-11-05T18:12:36.301Z,10.99
2022-11-05T18:15:40.352Z,10.68
2022-11-05T18:18:24.296Z,10.34
2022-11-05T18:24:09.678Z,10.19
2022-11-05T18:27:06.995Z,10.45
2022-11-05T18:29:47.797Z,10.58
2022-11-05T18:32:40.525Z,10.61
2022-11-05T18:35:52.645Z,10.58
2022-11-05T18:38:22.904Z,10.17
2022-11-05T18:40:53.702Z,10.26
2022-11-05T18:43:22.016Z,10.27
2022-11-05T18:45:58.956Z,9.54
2022-11-05T18:48:27.852Z,9.54
2022-11-05T18:51:19.302Z,9.87
2022-11-05T18:53:49.471Z,9.82
2022-11-05T18:56:25.039Z,9.81
2022-11-05T18:59:29.903Z,9.51
2022-11-05T19:01:57.605Z,9.67
2022-11-05T19:05:14.466Z,9.58
2022-11-05T19:07:49.219Z,9.99
2022-11-05T19:10:17.695Z,9.87
2022-11-05T19:12:49.504Z,9.63
2022-11-05T19:15:18.862Z,9.65
2022-11-05T19:17:47.162Z,9.51
2022-11-05T19:20:16.078Z,9.36
2022-11-05T19:22:46.967Z,9.42
2022-11-05T19:25:33.213Z,9.30
2022-11-05T19:28:05.018Z,8.91
2022-11-05T19:30:40.287Z,8.85
2022-11-05T19:33:10.957Z,9.25
2022-11-05T19:35:54.956Z,9.18
2022-11-05T19:38:28.802Z,9.07
2022-11-05T19:41:07.073Z,8.80
2022-11-05T19:44:02.078Z,8.61
2022-11-05T19:46:40.209Z,9.01
2022-11-05T19:49:21.155Z,9.18
2022-11-05T19:52:01.249Z,8.88
2022-11-05T19:54:34.361Z,8.60
2022-11-05T19:57:03.218Z,8.80
2022-11-05T19:59:35.767Z,8.73
2022-11-05T20:02:13.303Z,8.68
2022-11-05T20:04:50.422Z,8.55
2022-11-05T20:07:21.579Z,8.37
2022-11-05T20:09:50.299Z,8.72
2022-11-05T20:12:22.153Z,8.83
2022-11-05T20:14:50.528Z,8.45
2022-11-05T20:17:23.819Z,8.49
2022-11-05T20:19:52.296Z,8.10
2022-11-05T20:22:21.095Z,8.09
2022-11-05T20:24:49.407Z,7.64
2022-11-05T20:27:17.868Z,7.85
2022-11-05T20:29:51.108Z,8.25
2022-11-05T20:32:19.773Z,7.95
2022-11-05T20:34:59.892Z,8.14
2022-11-05T20:37:36.715Z,8.35
2022-11-05T20:40:10.109Z,8.53
2022-11-05T20:42:39.069Z,8.60
2022-11-05T20:45:17.264Z,8.57
2022-11-05T20:47:57.704Z,8.51
2022-11-05T20:50:30.443Z,8.50
2022-11-05T20:53:02.043Z,8.79
2022-11-05T20:55:29.981Z,8.80
2022-11-05T20:57:57.868Z,8.56
2022-11-05T21:02:12.883Z,8.46
2022-11-05T21:03:53.938Z,8.66
2022-11-05T21:06:23.433Z,8.71
2022-11-05T21:08:58.176Z,8.53
2022-11-05T21:11:28.011Z,8.66
2022-11-05T21:14:33.321Z,8.81
2022-11-05T21:17:52.227Z,8.95
2022-11-05T21:20:49.180Z,9.13
2022-11-05T21:23:50.535Z,9.43
2022-11-05T21:27:02.643Z,9.31
2022-11-05T21:29:53.954Z,9.75
2022-11-05T21:33:10.570Z,9.75
2022-11-05T21:36:19.534Z,9.21
2022-11-05T21:39:14.504Z,8.94
2022-11-05T21:42:25.474Z,8.80
2022-11-05T21:45:18.825Z,8.75
2022-11-05T21:47:46.573Z,9.00
2022-11-05T21:50:18.271Z,8.72
2022-11-05T21:53:20.834Z,8.64
2022-11-05T21:56:07.207Z,8.51
2022-11-05T21:58:56.247Z,8.42
2022-11-05T22:01:23.580Z,8.36
2022-11-05T22:03:50.899Z,8.30
2022-11-05T22:06:20.784Z,8.40
2022-11-05T22:08:47.929Z,8.23
2022-11-05T22:11:15.217Z,8.19
2022-11-05T22:13:42.486Z,8.22
2022-11-05T22:16:35.675Z,8.10
2022-11-05T22:19:03.588Z,8.19
2022-11-05T22:21:30.777Z,8.17
2022-11-05T22:23:58.048Z,8.17
2022-11-05T22:26:25.383Z,8.49
2022-11-05T22:28:56.470Z,8.39
2022-11-05T22:31:24.729Z,8.41
2022-11-05T22:33:53.232Z,8.42
2022-11-05T22:36:20.591Z,8.34
2022-11-05T22:38:47.825Z,8.30
2022-11-05T22:41:20.432Z,8.31
2022-11-05T22:43:48.910Z,8.30
2022-11-05T22:46:26.338Z,8.36
2022-11-05T22:48:54.514Z,8.30
2022-11-05T22:51:28.465Z,8.30
2022-11-05T22:53:56.739Z,8.34
2022-11-05T22:56:28.751Z,8.42
2022-11-05T22:58:56.683Z,8.42
2022-11-05T23:01:25.004Z,8.53
2022-11-05T23:03:56.956Z,8.66
2022-11-05T23:06:51.187Z,8.48
2022-11-05T23:09:45.683Z,8.77
2022-11-05T23:12:29.112Z,9.17
2022-11-05T23:14:59.962Z,8.59
2022-11-05T23:17:49.010Z,8.69
2022-11-05T23:20:42.226Z,8.69
2022-11-05T23:23:31.615Z,8.82
2022-11-05T23:26:24.787Z,8.94
2022-11-05T23:28:51.998Z,9.20
2022-11-05T23:31:38.024Z,9.16
2022-11-05T23:34:05.153Z,8.87
2022-11-05T23:36:51.191Z,9.25
2022-11-05T23:39:18.442Z,9.33
2022-11-05T23:42:04.539Z,8.91
2022-11-05T23:44:50.581Z,8.51
2022-11-05T23:47:36.535Z,8.56
2022-11-05T23:50:04.266Z,8.64
2022-11-05T23:52:31.992Z,8.53
2022-11-05T23:54:59.911Z,8.58
2022-11-05T23:57:27.423Z,8.43
2022-11-05T23:59:54.684Z,8.62
